createdAt,value
2023-05-10T00:00:59.189Z,100468.47
2023-05-10T00:03:28.149Z,100464.91
2023-05-10T00:05:55.859Z,100472.38
2023-05-10T00:08:23.554Z,100461.38
2023-05-10T00:10:51.224Z,100457.22
2023-05-10T00:13:18.752Z,100460.13
2023-05-10T00:15:46.361Z,100451.72
2023-05-10T00:18:13.915Z,100454.97
2023-05-10T00:20:42.821Z,100447.41
2023-05-10T00:23:10.371Z,100440.41
2023-05-10T00:25:37.918Z,100440.16
2023-05-10T00:28:05.845Z,100446.28
2023-05-10T00:30:33.417Z,100444.47
2023-05-10T00:33:01.292Z,100436.25
2023-05-10T00:35:29.117Z,100447.31
2023-05-10T00:37:58.025Z,100441.53
2023-05-10T00:40:25.825Z,100439.41
2023-05-10T00:42:57.721Z,100440.88
2023-05-10T00:45:25.778Z,100441.69
2023-05-10T00:47:55.948Z,100435.19
2023-05-10T00:50:23.920Z,100434.69
2023-05-10T00:52:52.030Z,100434.03
2023-05-10T00:55:20.988Z,100430.19
2023-05-10T00:57:49.138Z,100435.81
2023-05-10T01:00:19.137Z,100435.97
2023-05-10T01:02:47.239Z,100429.28
2023-05-10T01:05:15.448Z,100424.53
2023-05-10T01:07:43.040Z,100425.22
2023-05-10T01:10:11.946Z,100422.59
2023-05-10T01:12:43.368Z,100420.25
2023-05-10T01:15:12.873Z,100412.66
2023-05-10T01:17:42.317Z,100416.25
2023-05-10T01:20:12.363Z,100417.38
2023-05-10T01:23:06.227Z,100420.41
2023-05-10T01:26:08.843Z,100412.63
2023-05-10T01:29:13.579Z,100415.06
2023-05-10T01:32:11.245Z,100422.03
2023-05-10T01:34:45.435Z,100424.50
2023-05-10T01:37:17.865Z,100423.41
2023-05-10T01:39:49.000Z,100421.59
2023-05-10T01:42:20.965Z,100422.66
2023-05-10T01:44:55.702Z,100416.97
2023-05-10T01:47:32.868Z,100419.53
2023-05-10T01:50:04.376Z,100419.31
2023-05-10T01:52:35.473Z,100414.97
2023-05-10T01:55:06.672Z,100409.25
2023-05-10T01:57:36.466Z,100411.84
2023-05-10T02:00:06.112Z,100406.97
2023-05-10T02:02:47.660Z,100412.91
2023-05-10T02:05:17.188Z,100407.69
2023-05-10T02:07:45.870Z,100411.28
2023-05-10T02:10:15.520Z,100400.06
2023-05-10T02:12:45.232Z,100408.47
2023-05-10T02:15:14.857Z,100404.66
2023-05-10T02:17:44.388Z,100406.88
2023-05-10T02:20:13.451Z,100406.41
2023-05-10T02:22:43.560Z,100401.50
2023-05-10T02:25:13.274Z,100402.44
2023-05-10T02:27:43.377Z,100405.59
2023-05-10T02:30:12.078Z,100408.75
2023-05-10T02:32:40.813Z,100407.81
2023-05-10T02:35:11.690Z,100414.34
2023-05-10T02:37:40.453Z,100407.13
2023-05-10T02:40:10.486Z,100410.88
2023-05-10T02:42:39.804Z,100406.44
2023-05-10T02:45:12.706Z,100397.69
2023-05-10T02:47:40.558Z,100409.63
2023-05-10T02:50:10.918Z,100402.00
2023-05-10T02:52:42.702Z,100402.13
2023-05-10T02:55:13.614Z,100398.41
2023-05-10T02:57:48.385Z,100396.78
2023-05-10T03:00:16.537Z,100399.09
2023-05-10T03:02:44.295Z,100393.72
2023-05-10T03:05:13.367Z,100395.47
2023-05-10T03:07:40.937Z,100392.69
2023-05-10T03:10:09.736Z,100392.00
2023-05-10T03:12:58.744Z,100398.06
2023-05-10T03:15:34.119Z,100394.47
2023-05-10T03:18:07.057Z,100391.06
2023-05-10T03:20:38.438Z,100392.81
2023-05-10T03:23:13.117Z,100396.22
2023-05-10T03:25:44.589Z,100394.31
2023-05-10T03:28:14.088Z,100389.66
2023-05-10T03:30:43.306Z,100389.66
2023-05-10T03:33:13.685Z,100385.72
2023-05-10T03:35:46.633Z,100387.56
2023-05-10T03:38:15.137Z,100391.19
2023-05-10T03:40:42.694Z,100389.91
2023-05-10T03:43:10.432Z,100385.72
2023-05-10T03:45:37.971Z,100387.56
2023-05-10T03:48:06.595Z,100391.06
2023-05-10T03:50:34.354Z,100386.06
2023-05-10T03:53:03.706Z,100390.13
2023-05-10T03:55:35.333Z,100396.06
2023-05-10T03:58:02.931Z,100390.13
2023-05-10T04:00:31.035Z,100386.88
2023-05-10T04:02:58.595Z,100389.31
2023-05-10T04:05:26.376Z,100385.59
2023-05-10T04:07:54.472Z,100384.66
2023-05-10T04:10:23.384Z,100388.47
2023-05-10T04:12:51.023Z,100392.56
2023-05-10T04:15:18.860Z,100393.16
2023-05-10T04:17:46.711Z,100387.31
2023-05-10T04:20:14.979Z,100392.00
2023-05-10T04:22:42.824Z,100385.25
2023-05-10T04:25:10.998Z,100389.09
2023-05-10T04:27:40.001Z,100392.47
2023-05-10T04:30:09.181Z,100382.81
2023-05-10T04:32:37.180Z,100387.22
2023-05-10T04:35:05.701Z,100388.47
2023-05-10T04:37:33.463Z,100387.91
2023-05-10T04:40:01.894Z,100382.66
2023-05-10T04:42:29.662Z,100387.78
2023-05-10T04:44:58.694Z,100388.25
2023-05-10T04:47:26.375Z,100381.13
2023-05-10T04:49:54.029Z,100383.91
2023-05-10T04:52:21.695Z,100390.00
2023-05-10T04:54:49.308Z,100392.44
2023-05-10T04:57:17.030Z,100387.75
2023-05-10T04:59:44.632Z,100387.78
2023-05-10T05:02:13.597Z,100395.84
2023-05-10T05:04:41.291Z,100393.13
2023-05-10T05:07:08.989Z,100393.94
2023-05-10T05:09:36.600Z,100392.63
2023-05-10T05:12:04.620Z,100383.75
2023-05-10T05:14:32.383Z,100390.38
2023-05-10T05:17:00.738Z,100387.56
2023-05-10T05:19:29.726Z,100390.25
2023-05-10T05:21:57.323Z,100385.13
2023-05-10T05:24:25.034Z,100389.06
2023-05-10T05:26:52.731Z,100387.63
2023-05-10T05:29:20.505Z,100395.41
2023-05-10T05:31:48.283Z,100396.16
2023-05-10T05:34:15.941Z,100387.56
2023-05-10T05:36:44.973Z,100397.63
2023-05-10T05:39:12.607Z,100395.88
2023-05-10T05:41:40.281Z,100402.31
2023-05-10T05:44:07.932Z,100395.00
2023-05-10T05:46:35.735Z,100402.53
2023-05-10T05:49:03.712Z,100393.88
2023-05-10T05:51:31.930Z,100400.75
2023-05-10T05:54:00.897Z,100404.66
2023-05-10T05:56:28.711Z,100400.53
2023-05-10T05:58:56.466Z,100396.81
2023-05-10T06:01:24.110Z,100403.72
2023-05-10T06:03:53.300Z,100401.59
2023-05-10T06:06:21.161Z,100387.50
2023-05-10T06:08:48.650Z,100390.03
2023-05-10T06:11:17.542Z,100386.31
2023-05-10T06:13:45.520Z,100388.66
2023-05-10T06:16:13.502Z,100389.22
2023-05-10T06:18:41.282Z,100399.75
2023-05-10T06:21:09.074Z,100397.53
2023-05-10T06:23:36.657Z,100396.16
2023-05-10T06:26:04.223Z,100393.25
2023-05-10T06:28:34.414Z,100393.53
2023-05-10T06:31:02.471Z,100396.81
2023-05-10T06:33:30.107Z,100397.94
2023-05-10T06:35:58.121Z,100400.03
2023-05-10T06:38:26.133Z,100400.19
2023-05-10T06:40:53.744Z,100404.03
2023-05-10T06:43:21.421Z,100407.13
2023-05-10T06:45:51.106Z,100401.13
2023-05-10T06:48:18.836Z,100410.41
2023-05-10T06:50:46.444Z,100415.81
2023-05-10T06:53:14.108Z,100402.78
2023-05-10T06:55:41.828Z,100413.41
2023-05-10T06:58:09.320Z,100412.34
2023-05-10T07:00:40.114Z,100412.72
2023-05-10T07:03:09.111Z,100416.44
2023-05-10T07:05:36.851Z,100420.50
2023-05-10T07:08:04.689Z,100417.19
2023-05-10T07:10:32.205Z,100415.84
2023-05-10T07:12:59.804Z,100412.53
2023-05-10T07:15:27.343Z,100418.94
2023-05-10T07:17:55.023Z,100419.03
2023-05-10T07:20:23.937Z,100415.72
2023-05-10T07:22:51.531Z,100418.63
2023-05-10T07:25:19.233Z,100418.53
2023-05-10T07:27:46.903Z,100424.50
2023-05-10T07:30:15.187Z,100425.34
2023-05-10T07:32:43.494Z,100431.81
2023-05-10T07:35:11.062Z,100421.38
2023-05-10T07:37:39.903Z,100429.53
2023-05-10T07:40:08.928Z,100424.84
2023-05-10T07:42:36.442Z,100430.84
2023-05-10T07:45:04.033Z,100432.56
2023-05-10T07:47:31.564Z,100433.88
2023-05-10T07:49:59.388Z,100429.81
2023-05-10T07:52:26.933Z,100419.84
2023-05-10T07:54:57.721Z,100421.66
2023-05-10T07:57:25.350Z,100426.78
2023-05-10T07:59:52.867Z,100422.06
2023-05-10T08:02:20.430Z,100424.78
2023-05-10T08:04:47.985Z,100431.13
2023-05-10T08:07:15.543Z,100431.50
2023-05-10T08:09:43.278Z,100429.41
2023-05-10T08:12:12.203Z,100438.09
2023-05-10T08:14:39.851Z,100446.09
2023-05-10T08:17:07.356Z,100451.69
2023-05-10T08:19:34.915Z,100451.97
2023-05-10T08:22:02.725Z,100451.91
2023-05-10T08:24:30.286Z,100453.00
2023-05-10T08:26:58.198Z,100448.63
2023-05-10T08:29:28.498Z,100450.34
2023-05-10T08:31:58.242Z,100457.81
2023-05-10T08:34:26.327Z,100456.09
2023-05-10T08:36:54.188Z,100456.81
2023-05-10T08:39:29.879Z,100457.06
2023-05-10T08:42:03.400Z,100449.97
2023-05-10T08:44:33.818Z,100459.03
2023-05-10T08:47:02.581Z,100454.94
2023-05-10T08:49:33.722Z,100459.44
2023-05-10T08:52:06.298Z,100460.84
2023-05-10T08:54:34.973Z,100457.09
2023-05-10T08:57:02.777Z,100461.28
2023-05-10T08:59:31.989Z,100465.97
2023-05-10T09:02:00.668Z,100474.25
2023-05-10T09:04:28.858Z,100473.13
2023-05-10T09:06:56.814Z,100475.13
2023-05-10T09:09:27.166Z,100485.59
2023-05-10T09:11:55.876Z,100487.78
2023-05-10T09:14:25.374Z,100486.47
2023-05-10T09:16:56.155Z,100480.78
2023-05-10T09:19:23.893Z,100479.63
2023-05-10T09:21:51.440Z,100489.22
2023-05-10T09:24:18.997Z,100489.56
2023-05-10T09:26:50.824Z,100489.97
2023-05-10T09:29:18.451Z,100503.06
2023-05-10T09:31:48.669Z,100499.31
2023-05-10T09:34:22.229Z,100498.75
2023-05-10T09:36:58.378Z,100504.72
2023-05-10T09:39:36.024Z,100500.81
2023-05-10T09:42:06.626Z,100513.16
2023-05-10T09:44:34.695Z,100501.13
2023-05-10T09:47:02.433Z,100517.34
2023-05-10T09:49:32.031Z,100520.56
2023-05-10T09:52:03.406Z,100525.31
2023-05-10T09:54:31.081Z,100526.88
2023-05-10T09:56:58.869Z,100520.22
2023-05-10T09:59:28.127Z,100526.47
2023-05-10T10:01:59.141Z,100524.75
2023-05-10T10:04:27.467Z,100520.97
2023-05-10T10:07:04.881Z,100525.47
2023-05-10T10:09:32.856Z,100526.78
2023-05-10T10:12:01.380Z,100523.53
2023-05-10T10:14:29.364Z,100531.97
2023-05-10T10:17:07.305Z,100541.25
2023-05-10T10:19:36.747Z,100551.06
2023-05-10T10:22:06.738Z,100550.81
2023-05-10T10:24:34.664Z,100556.47
2023-05-10T10:27:15.285Z,100566.59
2023-05-10T10:29:51.772Z,100569.06
2023-05-10T10:32:26.522Z,100574.16
2023-05-10T10:34:55.709Z,100575.88
2023-05-10T10:37:24.646Z,100578.56
2023-05-10T10:39:52.248Z,100589.66
2023-05-10T10:42:47.054Z,100590.81
2023-05-10T10:45:15.466Z,100588.50
2023-05-10T10:47:44.520Z,100584.88
2023-05-10T10:50:13.799Z,100594.34
2023-05-10T10:52:43.744Z,100587.91
2023-05-10T10:55:13.392Z,100596.34
2023-05-10T10:57:52.585Z,100593.78
2023-05-10T11:00:22.795Z,100599.22
2023-05-10T11:02:52.357Z,100599.97
2023-05-10T11:05:27.996Z,100602.63
2023-05-10T11:07:58.482Z,100604.03
2023-05-10T11:10:27.221Z,100601.91
2023-05-10T11:12:56.544Z,100605.16
2023-05-10T11:15:31.384Z,100601.25
2023-05-10T11:17:59.065Z,100608.72
2023-05-10T11:20:34.174Z,100614.69
2023-05-10T11:23:14.064Z,100616.28
2023-05-10T11:25:44.660Z,100618.13
2023-05-10T11:28:12.644Z,100620.72
2023-05-10T11:30:41.669Z,100625.16
2023-05-10T11:33:10.016Z,100616.38
2023-05-10T11:35:44.729Z,100617.31
2023-05-10T11:38:15.045Z,100620.34
2023-05-10T11:40:43.378Z,100621.94
2023-05-10T11:43:12.223Z,100617.72
2023-05-10T11:45:41.729Z,100628.41
2023-05-10T11:48:09.797Z,100630.53
2023-05-10T11:50:37.369Z,100633.47
2023-05-10T11:53:05.007Z,100634.63
2023-05-10T11:55:36.531Z,100638.41
2023-05-10T11:58:04.543Z,100626.91
2023-05-10T12:00:33.470Z,100645.66
2023-05-10T12:03:02.725Z,100633.81
2023-05-10T12:05:34.186Z,100648.34
2023-05-10T12:08:15.410Z,100649.69
2023-05-10T12:10:44.413Z,100652.00
2023-05-10T12:13:16.115Z,100650.63
2023-05-10T12:15:44.567Z,100650.84
2023-05-10T12:18:12.757Z,100654.09
2023-05-10T12:20:40.574Z,100649.81
2023-05-10T12:23:10.899Z,100659.47
2023-05-10T12:25:39.265Z,100660.22
2023-05-10T12:28:10.468Z,100667.25
2023-05-10T12:30:39.055Z,100668.94
2023-05-10T12:33:12.053Z,100665.00
2023-05-10T12:35:50.988Z,100676.00
2023-05-10T12:38:30.718Z,100673.00
2023-05-10T12:40:59.416Z,100679.25
2023-05-10T12:43:28.565Z,100675.50
2023-05-10T12:45:56.320Z,100678.75
2023-05-10T12:48:23.952Z,100681.03
2023-05-10T12:50:51.483Z,100687.34
2023-05-10T12:53:18.974Z,100681.66
2023-05-10T12:55:46.669Z,100686.13
2023-05-10T12:58:27.496Z,100691.19
2023-05-10T13:01:03.555Z,100690.03
2023-05-10T13:03:31.452Z,100690.38
2023-05-10T13:05:59.153Z,100692.63
2023-05-10T13:08:26.694Z,100689.88
2023-05-10T13:10:54.388Z,100684.00
2023-05-10T13:13:21.931Z,100685.00
2023-05-10T13:15:49.553Z,100685.47
2023-05-10T13:18:18.528Z,100686.09
2023-05-10T13:20:46.147Z,100683.69
2023-05-10T13:23:13.779Z,100690.91
2023-05-10T13:25:41.333Z,100690.41
2023-05-10T13:28:08.837Z,100688.78
2023-05-10T13:30:36.464Z,100686.06
2023-05-10T13:33:04.022Z,100685.56
2023-05-10T13:35:32.971Z,100680.06
2023-05-10T13:38:00.622Z,100677.31
2023-05-10T13:40:28.978Z,100674.94
2023-05-10T13:42:56.534Z,100679.66
2023-05-10T13:45:24.064Z,100684.50
2023-05-10T13:47:51.798Z,100686.19
2023-05-10T13:50:19.994Z,100687.13
2023-05-10T13:52:48.845Z,100683.78
2023-05-10T13:55:16.674Z,100683.34
2023-05-10T13:57:44.433Z,100688.13
2023-05-10T14:00:13.010Z,100686.00
2023-05-10T14:02:41.394Z,100682.47
2023-05-10T14:05:09.543Z,100684.59
2023-05-10T14:07:37.119Z,100690.53
2023-05-10T14:10:06.525Z,100687.66
2023-05-10T14:12:34.098Z,100685.13
2023-05-10T14:15:02.038Z,100683.88
2023-05-10T14:17:29.627Z,100678.34
2023-05-10T14:19:57.176Z,100687.03
2023-05-10T14:22:24.765Z,100681.63
2023-05-10T14:24:52.284Z,100682.09
2023-05-10T14:27:21.302Z,100683.59
2023-05-10T14:29:49.227Z,100681.34
2023-05-10T14:32:16.837Z,100682.00
2023-05-10T14:34:44.366Z,100676.28
2023-05-10T14:37:12.916Z,100679.75
2023-05-10T14:39:40.472Z,100683.44
2023-05-10T14:42:08.118Z,100681.00
2023-05-10T14:44:37.015Z,100687.66
2023-05-10T14:47:04.539Z,100690.88
2023-05-10T14:49:32.454Z,100687.94
2023-05-10T14:52:00.003Z,100695.13
2023-05-10T14:54:28.225Z,100688.00
2023-05-10T14:56:55.743Z,100699.06
2023-05-10T14:59:23.417Z,100690.00
2023-05-10T15:01:52.682Z,100696.53
2023-05-10T15:04:20.560Z,100708.75
2023-05-10T15:06:48.574Z,100701.66
2023-05-10T15:09:16.471Z,100696.94
2023-05-10T15:11:45.351Z,100701.25
2023-05-10T15:14:12.992Z,100705.97
2023-05-10T15:16:40.585Z,100698.72
2023-05-10T15:19:09.602Z,100699.41
2023-05-10T15:21:39.663Z,100701.94
2023-05-10T15:24:07.314Z,100705.03
2023-05-10T15:26:35.109Z,100704.66
2023-05-10T15:29:02.692Z,100699.78
2023-05-10T15:31:30.451Z,100704.13
2023-05-10T15:33:59.367Z,100705.59
2023-05-10T15:36:28.238Z,100709.94
2023-05-10T15:38:55.850Z,100713.69
2023-05-10T15:41:23.531Z,100711.00
2023-05-10T15:43:51.130Z,100709.97
2023-05-10T15:46:18.777Z,100712.91
2023-05-10T15:48:46.447Z,100711.22
2023-05-10T15:51:14.007Z,100720.84
2023-05-10T15:53:56.466Z,100710.09
2023-05-10T15:56:30.629Z,100721.00
2023-05-10T15:58:58.175Z,100725.78
2023-05-10T16:01:25.788Z,100725.28
2023-05-10T16:03:53.361Z,100726.69
2023-05-10T16:06:21.385Z,100724.06
2023-05-10T16:08:50.263Z,100723.63
2023-05-10T16:11:17.849Z,100731.94
2023-05-10T16:13:45.411Z,100729.84
2023-05-10T16:16:13.071Z,100732.78
2023-05-10T16:18:40.783Z,100729.69
2023-05-10T16:21:08.436Z,100739.66
2023-05-10T16:23:36.216Z,100740.66
2023-05-10T16:26:05.120Z,100748.66
2023-05-10T16:28:32.686Z,100758.84
2023-05-10T16:31:00.264Z,100762.09
2023-05-10T16:33:27.954Z,100769.50
2023-05-10T16:35:55.533Z,100770.66
2023-05-10T16:38:23.137Z,100769.47
2023-05-10T16:40:50.907Z,100778.72
2023-05-10T16:43:20.116Z,100776.09
2023-05-10T16:45:47.706Z,100790.75
2023-05-10T16:48:15.522Z,100785.91
2023-05-10T16:50:44.517Z,100786.69
2023-05-10T16:53:12.471Z,100785.91
2023-05-10T16:55:40.048Z,100781.50
2023-05-10T16:58:07.555Z,100790.75
2023-05-10T17:00:36.479Z,100781.41
2023-05-10T17:03:04.123Z,100787.44
2023-05-10T17:05:31.654Z,100785.91
2023-05-10T17:07:59.206Z,100780.03
2023-05-10T17:10:26.835Z,100788.72
2023-05-10T17:12:54.590Z,100793.38
2023-05-10T17:15:22.163Z,100790.06
2023-05-10T17:17:51.296Z,100792.81
2023-05-10T17:20:19.177Z,100803.03
2023-05-10T17:22:46.732Z,100800.72
2023-05-10T17:25:14.241Z,100806.22
2023-05-10T17:27:42.726Z,100805.41
2023-05-10T17:30:11.061Z,100811.03
2023-05-10T17:32:38.647Z,100813.72
2023-05-10T17:35:08.518Z,100816.41
2023-05-10T17:37:36.094Z,100811.44
2023-05-10T17:40:05.773Z,100819.25
2023-05-10T17:42:33.491Z,100821.09
2023-05-10T17:45:01.192Z,100828.09
2023-05-10T17:47:28.799Z,100827.59
2023-05-10T17:49:56.409Z,100834.75
2023-05-10T17:52:25.674Z,100841.34
2023-05-10T17:54:53.238Z,100844.94
2023-05-10T17:57:20.886Z,100842.97
2023-05-10T17:59:48.412Z,100846.03
2023-05-10T18:02:15.986Z,100856.94
2023-05-10T18:04:44.333Z,100857.28
2023-05-10T18:07:12.379Z,100865.75
2023-05-10T18:09:41.653Z,100872.22
2023-05-10T18:12:09.152Z,100874.63
2023-05-10T18:14:41.193Z,100884.00
2023-05-10T18:17:09.464Z,100884.78
2023-05-10T18:19:37.275Z,100889.53
2023-05-10T18:22:04.880Z,100886.03
2023-05-10T18:27:05.642Z,100896.84
2023-05-10T18:29:33.154Z,100897.31
2023-05-10T18:32:00.741Z,100902.31
2023-05-10T18:34:28.722Z,100900.53
2023-05-10T18:36:56.558Z,100896.13
2023-05-10T18:39:25.073Z,100903.22
2023-05-10T18:41:52.935Z,100907.41
2023-05-10T18:44:23.165Z,100913.47
2023-05-10T18:46:54.052Z,100921.72
2023-05-10T18:49:21.719Z,100925.94
2023-05-10T18:51:49.269Z,100927.78
2023-05-10T18:54:16.859Z,100929.00
2023-05-10T18:56:45.267Z,100930.63
2023-05-10T18:59:13.301Z,100926.00
2023-05-10T19:01:42.710Z,100932.41
2023-05-10T19:04:10.454Z,100940.13
2023-05-10T19:06:38.089Z,100939.88
2023-05-10T19:09:05.846Z,100938.69
2023-05-10T19:11:34.454Z,100942.09
2023-05-10T19:14:02.292Z,100943.56
2023-05-10T19:16:30.790Z,100942.34
2023-05-10T19:19:02.478Z,100945.09
2023-05-10T19:21:32.216Z,100949.63
2023-05-10T19:24:01.409Z,100946.75
2023-05-10T19:26:29.375Z,100949.69
2023-05-10T19:28:57.513Z,100950.06
2023-05-10T19:31:25.630Z,100952.09
2023-05-10T19:33:53.638Z,100957.25
2023-05-10T19:36:22.544Z,100964.03
2023-05-10T19:38:51.580Z,100963.00
2023-05-10T19:41:19.729Z,100965.34
2023-05-10T19:43:47.349Z,100964.97
2023-05-10T19:46:15.428Z,100968.34
2023-05-10T19:48:46.836Z,100973.31
2023-05-10T19:51:14.892Z,100970.06
2023-05-10T19:53:44.742Z,100975.63
2023-05-10T19:56:12.723Z,100977.88
2023-05-10T19:58:40.890Z,100971.91
2023-05-10T20:01:08.506Z,100979.63
2023-05-10T20:03:36.220Z,100983.75
2023-05-10T20:06:04.809Z,100986.22
2023-05-10T20:08:32.405Z,100987.84
2023-05-10T20:11:03.581Z,100989.13
2023-05-10T20:13:31.380Z,100989.91
2023-05-10T20:15:59.982Z,100988.75
2023-05-10T20:18:27.965Z,100987.13
2023-05-10T20:20:56.027Z,100991.75
2023-05-10T20:23:23.839Z,100988.25
2023-05-10T20:25:51.547Z,100994.94
2023-05-10T20:28:23.080Z,100995.97
2023-05-10T20:30:53.653Z,100990.59
2023-05-10T20:33:21.592Z,100994.50
2023-05-10T20:35:49.621Z,100994.94
2023-05-10T20:38:17.960Z,100993.56
2023-05-10T20:40:46.416Z,100993.34
2023-05-10T20:43:14.255Z,101004.72
2023-05-10T20:45:43.253Z,101003.06
2023-05-10T20:48:10.957Z,101000.63
2023-05-10T20:50:38.498Z,101003.06
2023-05-10T20:53:06.132Z,101005.81
2023-05-10T20:55:33.786Z,101007.25
2023-05-10T20:58:04.146Z,101003.19
2023-05-10T21:00:32.514Z,100997.41
2023-05-10T21:03:01.566Z,100993.75
2023-05-10T21:05:29.190Z,100990.28
2023-05-10T21:07:56.834Z,100989.47
2023-05-10T21:10:25.448Z,100993.34
2023-05-10T21:12:53.010Z,100996.31
2023-05-10T21:15:22.468Z,100992.78
2023-05-10T21:17:49.996Z,100994.25
2023-05-10T21:20:19.051Z,100992.63
2023-05-10T21:22:46.892Z,100995.50
2023-05-10T21:25:14.492Z,100998.00
2023-05-10T21:27:42.078Z,100994.47
2023-05-10T21:30:11.029Z,100995.13
2023-05-10T21:32:38.627Z,101001.69
2023-05-10T21:35:07.117Z,100997.75
2023-05-10T21:37:36.001Z,101001.22
2023-05-10T21:40:04.561Z,101005.94
2023-05-10T21:42:32.443Z,101002.25
2023-05-10T21:45:00.099Z,101003.69
2023-05-10T21:47:27.935Z,101004.50
2023-05-10T21:49:55.458Z,100999.75
2023-05-10T21:52:22.977Z,101004.91
2023-05-10T21:54:51.978Z,101004.03
2023-05-10T21:57:21.371Z,101003.00
2023-05-10T21:59:48.947Z,101004.03
2023-05-10T22:02:16.956Z,101008.63
2023-05-10T22:04:44.561Z,101009.25
2023-05-10T22:07:12.214Z,101007.34
2023-05-10T22:09:39.782Z,101013.50
2023-05-10T22:12:08.748Z,101008.97
2023-05-10T22:14:36.309Z,101018.03
2023-05-10T22:17:03.930Z,101016.34
2023-05-10T22:19:31.619Z,101012.50
2023-05-10T22:21:59.147Z,101010.66
2023-05-10T22:24:26.990Z,101009.84
2023-05-10T22:26:54.907Z,101011.53
2023-05-10T22:29:24.030Z,101012.94
2023-05-10T22:31:51.687Z,101012.94
2023-05-10T22:34:19.355Z,101019.13
2023-05-10T22:36:47.095Z,101016.06
2023-05-10T22:39:14.585Z,101024.28
2023-05-10T22:41:42.108Z,101019.75
2023-05-10T22:44:09.752Z,101027.81
2023-05-10T22:46:39.272Z,101032.56
2023-05-10T22:49:06.991Z,101027.34
2023-05-10T22:51:35.182Z,101025.91
2023-05-10T22:54:02.788Z,101028.75
2023-05-10T22:56:30.342Z,101038.22
2023-05-10T22:58:58.397Z,101027.13
2023-05-10T23:01:26.051Z,101033.28
2023-05-10T23:03:54.998Z,101040.97
2023-05-10T23:06:22.466Z,101036.63
2023-05-10T23:08:49.971Z,101037.28
2023-05-10T23:11:17.544Z,101042.03
2023-05-10T23:13:45.130Z,101039.34
2023-05-10T23:16:12.759Z,101047.78
2023-05-10T23:18:40.546Z,101050.03
2023-05-10T23:21:09.459Z,101056.84
2023-05-10T23:23:37.219Z,101057.91
2023-05-10T23:26:05.143Z,101052.34
2023-05-10T23:28:32.798Z,101055.66
2023-05-10T23:31:00.547Z,101053.75
2023-05-10T23:33:28.551Z,101053.88
2023-05-10T23:35:56.103Z,101052.00
2023-05-10T23:38:25.549Z,101048.47
2023-05-10T23:40:53.083Z,101052.38
2023-05-10T23:43:21.597Z,101052.97
2023-05-10T23:45:56.108Z,101048.06
2023-05-10T23:48:23.867Z,101049.72
2023-05-10T23:50:51.741Z,101053.25
2023-05-10T23:53:19.572Z,101051.34
2023-05-10T23:55:48.424Z,101057.31
2023-05-10T23:58:15.993Z,101054.63
